createdAt,value
2022-12-08T00:01:40.994Z,20.45
2022-12-08T00:04:09.412Z,19.65
2022-12-08T00:06:56.792Z,22.00
2022-12-08T00:09:37.988Z,20.70
2022-12-08T00:12:08.780Z,20.15
2022-12-08T00:14:38.374Z,21.65
2022-12-08T00:17:07.488Z,22.45
2022-12-08T00:19:35.682Z,20.70
2022-12-08T00:22:03.989Z,19.90
2022-12-08T00:24:35.657Z,19.75
2022-12-08T00:27:03.741Z,20.55
2022-12-08T00:29:31.908Z,19.88
2022-12-08T00:32:00.152Z,18.30
2022-12-08T00:34:28.370Z,19.90
2022-12-08T00:36:56.296Z,22.27
2022-12-08T00:39:24.491Z,19.45
2022-12-08T00:42:11.481Z,21.15
2022-12-08T00:44:39.938Z,20.40
2022-12-08T00:47:07.851Z,20.38
2022-12-08T00:49:36.121Z,21.00
2022-12-08T00:52:04.134Z,21.13
2022-12-08T00:54:32.330Z,19.17
2022-12-08T00:57:01.604Z,20.57
2022-12-08T00:59:29.930Z,19.25
2022-12-08T01:01:57.912Z,21.33
2022-12-08T01:04:26.061Z,19.67
2022-12-08T01:06:53.957Z,20.33
2022-12-08T01:09:22.101Z,20.43
2022-12-08T01:11:50.020Z,20.58
2022-12-08T01:14:19.529Z,20.85
2022-12-08T01:16:48.145Z,19.25
2022-12-08T01:19:17.329Z,22.05
2022-12-08T01:21:46.372Z,21.13
2022-12-08T01:24:16.165Z,19.85
2022-12-08T01:26:44.407Z,20.38
2022-12-08T01:29:12.852Z,21.70
2022-12-08T01:31:42.185Z,24.67
2022-12-08T01:34:11.741Z,20.20
2022-12-08T01:36:39.802Z,20.15
2022-12-08T01:39:09.730Z,20.15
2022-12-08T01:41:38.828Z,20.60
2022-12-08T01:44:40.177Z,19.42
2022-12-08T01:47:09.647Z,18.63
2022-12-08T01:49:37.967Z,23.75
2022-12-08T01:52:11.054Z,18.05
2022-12-08T01:54:43.637Z,22.17
2022-12-08T01:57:13.674Z,20.10
2022-12-08T01:59:45.340Z,20.33
2022-12-08T02:02:14.769Z,23.95
2022-12-08T02:04:43.045Z,20.45
2022-12-08T02:07:11.952Z,19.52
2022-12-08T02:09:41.284Z,20.17
2022-12-08T02:12:10.085Z,19.67
2022-12-08T02:14:38.305Z,19.60
2022-12-08T02:17:11.870Z,19.05
2022-12-08T02:20:18.610Z,18.35
2022-12-08T02:22:53.658Z,18.67
2022-12-08T02:25:29.638Z,19.30
2022-12-08T02:28:03.965Z,19.52
2022-12-08T02:30:39.243Z,18.58
2022-12-08T02:33:39.669Z,18.17
2022-12-08T02:36:16.363Z,18.23
2022-12-08T02:38:48.525Z,20.53
2022-12-08T02:41:33.274Z,20.08
2022-12-08T02:44:06.547Z,19.52
2022-12-08T02:46:39.338Z,21.45
2022-12-08T02:49:08.048Z,18.92
2022-12-08T02:51:37.520Z,19.63
2022-12-08T02:54:05.897Z,22.02
2022-12-08T02:56:59.981Z,18.52
2022-12-08T02:59:38.214Z,22.13
2022-12-08T03:02:18.409Z,21.55
2022-12-08T03:04:48.049Z,23.17
2022-12-08T03:07:22.110Z,20.10
2022-12-08T03:09:52.823Z,18.55
2022-12-08T03:12:25.157Z,21.35
2022-12-08T03:14:54.717Z,20.77
2022-12-08T03:17:25.906Z,21.23
2022-12-08T03:19:54.707Z,24.08
2022-12-08T03:22:26.720Z,20.83
2022-12-08T03:24:54.979Z,21.02
2022-12-08T03:27:24.900Z,20.63
2022-12-08T03:29:54.486Z,20.77
2022-12-08T03:32:25.518Z,21.70
2022-12-08T03:34:53.999Z,23.27
2022-12-08T03:37:23.743Z,23.60
2022-12-08T03:39:51.647Z,22.77
2022-12-08T03:42:19.821Z,22.60
2022-12-08T03:44:47.736Z,22.27
2022-12-08T03:47:15.915Z,21.80
2022-12-08T03:49:43.824Z,22.55
2022-12-08T03:52:11.970Z,22.40
2022-12-08T03:54:41.254Z,23.73
2022-12-08T03:57:09.642Z,24.55
2022-12-08T03:59:37.550Z,19.23
2022-12-08T04:02:05.734Z,21.85
2022-12-08T04:04:33.705Z,20.58
2022-12-08T04:07:01.906Z,23.13
2022-12-08T04:09:29.859Z,22.77
2022-12-08T04:11:59.360Z,24.83
2022-12-08T04:14:27.337Z,23.38
2022-12-08T04:16:55.468Z,26.02
2022-12-08T04:19:23.413Z,21.97
2022-12-08T04:21:51.557Z,24.55
2022-12-08T04:24:19.440Z,22.98
2022-12-08T04:26:49.641Z,22.15
2022-12-08T04:29:19.093Z,22.67
2022-12-08T04:31:47.275Z,26.27
2022-12-08T04:34:15.179Z,21.90
2022-12-08T04:36:43.342Z,23.13
2022-12-08T04:39:11.269Z,22.70
2022-12-08T04:41:39.405Z,22.40
2022-12-08T04:44:07.262Z,21.43
2022-12-08T04:46:41.696Z,20.02
2022-12-08T04:49:11.224Z,27.17
2022-12-08T04:51:39.445Z,18.48
2022-12-08T04:54:07.343Z,19.23
2022-12-08T04:56:35.585Z,19.70
2022-12-08T04:59:03.640Z,20.77
2022-12-08T05:01:31.987Z,18.48
2022-12-08T05:04:01.425Z,19.40
2022-12-08T05:06:29.613Z,19.98
2022-12-08T05:08:57.536Z,17.63
2022-12-08T05:11:25.828Z,17.92
2022-12-08T05:13:53.697Z,20.85
2022-12-08T05:16:22.017Z,18.33
2022-12-08T05:18:49.934Z,21.15
2022-12-08T05:21:19.499Z,20.93
2022-12-08T05:23:47.404Z,21.30
2022-12-08T05:26:15.597Z,18.55
2022-12-08T05:28:44.568Z,20.52
2022-12-08T05:31:13.475Z,19.02
2022-12-08T05:33:41.751Z,20.10
2022-12-08T05:36:10.267Z,19.95
2022-12-08T05:38:39.533Z,18.00
2022-12-08T05:41:07.946Z,20.05
2022-12-08T05:43:35.889Z,19.77
2022-12-08T05:46:04.107Z,21.57
2022-12-08T05:48:32.043Z,21.95
2022-12-08T05:51:00.932Z,20.25
2022-12-08T05:53:31.251Z,18.80
2022-12-08T05:56:01.040Z,18.85
2022-12-08T05:58:28.986Z,17.80
2022-12-08T06:00:57.114Z,19.52
2022-12-08T06:03:25.324Z,21.00
2022-12-08T06:05:53.640Z,21.00
2022-12-08T06:08:21.578Z,19.83
2022-12-08T06:10:49.999Z,20.40
2022-12-08T06:13:19.246Z,18.83
2022-12-08T06:15:47.374Z,19.25
2022-12-08T06:18:15.297Z,21.58
2022-12-08T06:20:43.479Z,23.38
2022-12-08T06:23:11.562Z,20.03
2022-12-08T06:25:39.717Z,20.27
2022-12-08T06:28:08.537Z,19.50
2022-12-08T06:30:38.601Z,21.98
2022-12-08T06:33:06.563Z,20.60
2022-12-08T06:35:34.768Z,18.57
2022-12-08T06:38:02.625Z,20.52
2022-12-08T06:40:30.771Z,18.95
2022-12-08T06:42:58.668Z,16.70
2022-12-08T06:45:26.764Z,21.50
2022-12-08T06:47:56.029Z,20.47
2022-12-08T06:50:24.305Z,19.70
2022-12-08T06:53:02.759Z,18.83
2022-12-08T06:58:21.833Z,17.58
2022-12-08T07:00:50.125Z,18.80
2022-12-08T07:03:19.499Z,18.73
2022-12-08T07:05:47.803Z,21.58
2022-12-08T07:08:15.826Z,19.98
2022-12-08T07:10:44.031Z,18.02
2022-12-08T07:13:12.053Z,22.37
2022-12-08T07:15:40.192Z,23.23
2022-12-08T07:18:08.091Z,22.73
2022-12-08T07:20:37.803Z,21.08
2022-12-08T07:23:05.665Z,21.50
2022-12-08T07:25:33.946Z,23.27
2022-12-08T07:28:01.813Z,20.75
2022-12-08T07:30:30.107Z,20.80
2022-12-08T07:32:58.200Z,20.20
2022-12-08T07:35:26.683Z,20.73
2022-12-08T07:37:55.936Z,21.00
2022-12-08T07:40:24.161Z,21.67
2022-12-08T07:42:52.019Z,22.25
2022-12-08T07:45:20.294Z,25.13
2022-12-08T07:47:48.241Z,21.63
2022-12-08T07:50:16.413Z,23.60
2022-12-08T07:52:44.333Z,23.85
2022-12-08T07:55:13.893Z,21.45
2022-12-08T07:57:41.757Z,20.90
2022-12-08T08:00:12.218Z,20.35
2022-12-08T08:02:40.751Z,22.07
2022-12-08T08:05:10.226Z,21.25
2022-12-08T08:07:38.633Z,22.20
2022-12-08T08:10:08.272Z,22.92
2022-12-08T08:12:37.994Z,21.38
2022-12-08T08:15:08.510Z,21.20
2022-12-08T08:17:38.273Z,23.10
2022-12-08T08:20:08.507Z,21.95
2022-12-08T08:22:36.965Z,23.73
2022-12-08T08:25:05.768Z,23.13
2022-12-08T08:27:33.693Z,21.70
2022-12-08T08:30:06.695Z,22.25
2022-12-08T08:32:35.779Z,23.13
2022-12-08T08:35:04.347Z,19.77
2022-12-08T08:37:32.395Z,19.70
2022-12-08T08:40:00.598Z,22.83
2022-12-08T08:42:28.778Z,22.88
2022-12-08T08:44:56.999Z,23.10
2022-12-08T08:47:26.332Z,23.60
2022-12-08T08:49:54.547Z,24.40
2022-12-08T08:52:22.533Z,19.87
2022-12-08T08:54:50.668Z,22.48
2022-12-08T08:57:25.056Z,20.45
2022-12-08T08:59:53.948Z,22.35
2022-12-08T09:02:22.109Z,20.27
2022-12-08T09:04:51.906Z,23.83
2022-12-08T09:07:20.033Z,18.95
2022-12-08T09:09:48.414Z,23.77
2022-12-08T09:12:16.438Z,19.65
2022-12-08T09:14:45.763Z,20.80
2022-12-08T09:17:13.844Z,20.77
2022-12-08T09:19:42.557Z,19.73
2022-12-08T09:22:11.765Z,22.70
2022-12-08T09:24:41.258Z,20.20
2022-12-08T09:27:09.231Z,20.98
2022-12-08T09:29:37.472Z,20.87
2022-12-08T09:32:05.770Z,20.88
2022-12-08T09:34:34.014Z,20.75
2022-12-08T09:37:01.945Z,23.42
2022-12-08T09:39:31.456Z,23.60
2022-12-08T09:42:01.867Z,20.27
2022-12-08T09:44:57.237Z,19.45
2022-12-08T09:47:32.124Z,20.80
2022-12-08T09:50:07.560Z,21.48
2022-12-08T09:52:39.552Z,20.70
2022-12-08T09:55:16.844Z,19.13
2022-12-08T09:57:45.779Z,20.10
2022-12-08T10:00:15.248Z,20.17
2022-12-08T10:02:43.816Z,19.67
2022-12-08T10:05:14.727Z,18.77
2022-12-08T10:07:46.845Z,19.20
2022-12-08T10:10:26.052Z,16.67
2022-12-08T10:12:56.660Z,16.95
2022-12-08T10:15:36.236Z,18.17
2022-12-08T10:18:10.098Z,17.30
2022-12-08T10:20:40.953Z,18.07
2022-12-08T10:23:11.069Z,15.32
2022-12-08T10:25:44.449Z,17.23
2022-12-08T10:28:12.829Z,18.25
2022-12-08T10:30:41.232Z,22.17
2022-12-08T10:33:14.487Z,17.27
2022-12-08T10:35:47.330Z,17.60
2022-12-08T10:38:20.799Z,18.33
2022-12-08T10:40:51.961Z,17.88
2022-12-08T10:43:22.770Z,17.83
2022-12-08T10:45:51.137Z,17.07
2022-12-08T10:48:20.529Z,17.25
2022-12-08T10:50:55.045Z,15.90
2022-12-08T10:53:24.834Z,19.30
2022-12-08T10:56:06.349Z,17.23
2022-12-08T10:58:36.156Z,16.07
2022-12-08T11:01:07.998Z,21.45
2022-12-08T11:03:37.621Z,19.88
2022-12-08T11:06:14.378Z,18.17
2022-12-08T11:08:51.755Z,19.77
2022-12-08T11:11:29.071Z,18.50
2022-12-08T11:13:57.633Z,16.83
2022-12-08T11:16:26.057Z,16.80
2022-12-08T11:18:57.921Z,14.95
2022-12-08T11:21:36.351Z,15.63
2022-12-08T11:24:21.939Z,16.60
2022-12-08T11:26:54.016Z,17.63
2022-12-08T11:29:22.501Z,15.00
2022-12-08T11:31:53.788Z,16.85
2022-12-08T11:34:27.848Z,16.38
2022-12-08T11:36:56.810Z,18.33
2022-12-08T11:39:27.648Z,21.20
2022-12-08T11:41:58.008Z,16.42
2022-12-08T11:44:30.336Z,16.38
2022-12-08T11:47:01.796Z,13.90
2022-12-08T11:49:35.377Z,15.50
2022-12-08T11:52:12.037Z,15.88
2022-12-08T11:54:43.647Z,15.85
2022-12-08T11:57:16.414Z,15.48
2022-12-08T11:59:46.197Z,13.40
2022-12-08T12:02:17.330Z,15.43
2022-12-08T12:04:47.871Z,14.07
2022-12-08T12:07:28.312Z,16.05
2022-12-08T12:10:10.665Z,16.95
2022-12-08T12:13:01.138Z,14.93
2022-12-08T12:15:52.448Z,12.60
2022-12-08T12:18:26.570Z,14.25
2022-12-08T12:20:57.655Z,15.25
2022-12-08T12:23:30.894Z,14.35
2022-12-08T12:26:00.723Z,13.70
2022-12-08T12:28:35.851Z,13.30
2022-12-08T12:31:07.396Z,15.55
2022-12-08T12:33:36.176Z,13.63
2022-12-08T12:36:06.760Z,15.38
2022-12-08T12:38:54.547Z,15.88
2022-12-08T12:41:25.700Z,13.80
2022-12-08T12:44:35.755Z,16.52
2022-12-08T12:47:08.622Z,15.27
2022-12-08T12:49:52.468Z,16.00
2022-12-08T12:52:40.482Z,13.52
2022-12-08T12:55:25.964Z,15.73
2022-12-08T12:57:55.410Z,14.68
2022-12-08T13:00:24.998Z,13.27
2022-12-08T13:02:57.448Z,12.35
2022-12-08T13:05:27.724Z,13.27
2022-12-08T13:07:57.436Z,12.67
2022-12-08T13:10:28.330Z,15.25
2022-12-08T13:13:05.628Z,13.90
2022-12-08T13:15:39.217Z,12.38
2022-12-08T13:18:17.926Z,13.40
2022-12-08T13:20:48.521Z,15.87
2022-12-08T13:23:31.207Z,14.05
2022-12-08T13:26:17.899Z,14.75
2022-12-08T13:29:06.073Z,12.85
2022-12-08T13:31:38.309Z,13.05
2022-12-08T13:34:08.210Z,14.60
2022-12-08T13:36:38.626Z,16.63
2022-12-08T13:39:07.369Z,15.68
2022-12-08T13:41:38.235Z,13.13
2022-12-08T13:45:03.552Z,14.73
2022-12-08T13:47:32.161Z,13.60
2022-12-08T13:58:29.031Z,14.05
2022-12-08T14:01:00.623Z,16.17
2022-12-08T14:03:29.168Z,16.38
2022-12-08T14:06:14.260Z,15.07
2022-12-08T14:09:00.396Z,12.32
2022-12-08T14:11:36.706Z,11.63
2022-12-08T14:14:08.205Z,12.70
2022-12-08T14:16:39.559Z,13.32
2022-12-08T14:19:17.239Z,16.83
2022-12-08T14:22:07.083Z,16.00
2022-12-08T14:24:39.036Z,13.40
2022-12-08T14:27:10.181Z,14.03
2022-12-08T14:29:43.695Z,16.23
2022-12-08T14:32:24.107Z,12.75
2022-12-08T14:34:58.482Z,14.15
2022-12-08T14:37:29.502Z,13.88
2022-12-08T14:40:02.944Z,14.50
2022-12-08T14:42:31.417Z,15.85
2022-12-08T14:45:02.305Z,15.88
2022-12-08T14:47:31.981Z,14.25
2022-12-08T14:50:00.422Z,12.98
2022-12-08T14:52:30.288Z,13.33
2022-12-08T14:54:58.836Z,16.13
2022-12-08T14:57:33.205Z,15.98
2022-12-08T15:00:08.835Z,18.60
2022-12-08T15:02:42.974Z,16.88
2022-12-08T15:05:13.312Z,14.73
2022-12-08T15:07:49.333Z,16.65
2022-12-08T15:10:23.814Z,16.75
2022-12-08T15:13:02.650Z,19.58
2022-12-08T15:15:32.750Z,15.60
2022-12-08T15:18:13.090Z,26.97
2022-12-08T15:20:43.048Z,18.52
2022-12-08T15:23:22.687Z,15.45
2022-12-08T15:25:51.839Z,15.50
2022-12-08T15:28:25.225Z,16.42
2022-12-08T15:30:57.205Z,15.77
2022-12-08T15:33:25.137Z,22.17
2022-12-08T15:35:53.590Z,18.83
2022-12-08T15:38:24.650Z,15.55
2022-12-08T15:40:53.191Z,16.20
2022-12-08T15:43:21.381Z,15.53
2022-12-08T15:45:58.522Z,17.00
2022-12-08T15:48:29.377Z,17.33
2022-12-08T15:50:57.920Z,14.68
2022-12-08T15:53:27.331Z,15.65
2022-12-08T15:56:26.224Z,16.13
2022-12-08T15:58:59.368Z,17.40
2022-12-08T16:01:28.049Z,15.77
2022-12-08T16:09:38.392Z,15.43
2022-12-08T16:12:25.392Z,17.80
2022-12-08T16:17:42.318Z,16.15
2022-12-08T16:20:14.234Z,15.25
2022-12-08T16:22:54.563Z,18.30
2022-12-08T16:25:46.060Z,15.27
2022-12-08T16:28:52.232Z,16.98
2022-12-08T16:31:10.257Z,19.90
2022-12-08T16:33:41.541Z,16.75
2022-12-08T16:36:10.629Z,17.63
2022-12-08T16:38:38.802Z,15.95
2022-12-08T16:41:30.057Z,15.65
2022-12-08T16:44:02.031Z,17.30
2022-12-08T16:46:32.526Z,16.20
2022-12-08T16:49:00.775Z,18.43
2022-12-08T16:51:28.797Z,18.67
2022-12-08T16:53:58.185Z,18.35
2022-12-08T16:56:32.603Z,19.52
2022-12-08T16:59:02.367Z,17.08
2022-12-08T17:01:30.671Z,17.63
2022-12-08T17:04:29.839Z,18.95
2022-12-08T17:06:46.765Z,22.63
2022-12-08T17:09:14.918Z,19.88
2022-12-08T17:11:44.291Z,22.00
2022-12-08T17:14:13.144Z,21.07
2022-12-08T17:16:41.642Z,19.92
2022-12-08T17:19:10.142Z,29.25
2022-12-08T17:21:38.028Z,25.80
2022-12-08T17:24:06.728Z,23.42
2022-12-08T17:26:35.366Z,22.43
2022-12-08T17:29:05.384Z,18.30
2022-12-08T17:31:35.255Z,22.30
2022-12-08T17:34:09.451Z,18.20
2022-12-08T17:36:37.690Z,18.77
2022-12-08T17:39:09.244Z,18.83
2022-12-08T17:41:39.018Z,19.08
2022-12-08T17:44:13.481Z,17.65
2022-12-08T17:46:44.295Z,19.80
2022-12-08T17:49:19.054Z,21.30
2022-12-08T17:51:48.506Z,19.50
2022-12-08T17:54:19.057Z,19.98
2022-12-08T17:56:47.647Z,21.40
2022-12-08T17:59:17.300Z,20.02
2022-12-08T18:01:45.517Z,19.77
2022-12-08T18:04:13.860Z,19.17
2022-12-08T18:06:42.114Z,18.95
2022-12-08T18:09:10.757Z,19.63
2022-12-08T18:11:38.927Z,17.63
2022-12-08T18:14:10.284Z,18.35
2022-12-08T18:16:41.436Z,22.70
2022-12-08T18:19:10.284Z,23.63
2022-12-08T18:21:40.206Z,37.15
2022-12-08T18:24:10.031Z,26.33
2022-12-08T18:26:38.544Z,22.75
2022-12-08T18:29:06.889Z,19.93
2022-12-08T18:31:34.922Z,21.25
2022-12-08T18:34:04.792Z,21.65
2022-12-08T18:36:32.907Z,21.48
2022-12-08T18:39:03.469Z,19.60
2022-12-08T18:41:35.321Z,20.97
2022-12-08T18:44:03.488Z,24.88
2022-12-08T18:46:32.399Z,21.95
2022-12-08T18:49:00.933Z,22.35
2022-12-08T18:51:32.266Z,19.25
2022-12-08T18:54:08.033Z,18.33
2022-12-08T18:56:37.636Z,19.67
2022-12-08T18:59:08.262Z,19.20
2022-12-08T19:01:41.776Z,17.88
2022-12-08T19:04:27.849Z,21.50
2022-12-08T19:06:58.601Z,19.60
2022-12-08T19:09:29.102Z,18.63
2022-12-08T19:11:58.821Z,21.35
2022-12-08T19:14:28.716Z,19.73
2022-12-08T19:16:57.733Z,18.42
2022-12-08T19:19:26.256Z,19.63
2022-12-08T19:21:54.621Z,20.77
2022-12-08T19:24:24.811Z,22.92
2022-12-08T19:26:54.169Z,21.98
2022-12-08T19:29:28.058Z,21.25
2022-12-08T19:31:57.661Z,18.80
2022-12-08T19:34:26.669Z,19.88
2022-12-08T19:36:55.585Z,18.95
2022-12-08T19:39:43.256Z,17.23
2022-12-08T19:42:33.749Z,16.65
2022-12-08T19:45:08.228Z,17.73
2022-12-08T19:47:36.539Z,18.20
2022-12-08T19:50:20.277Z,18.00
2022-12-08T19:52:48.177Z,18.90
2022-12-08T19:55:19.638Z,18.67
2022-12-08T19:57:51.665Z,16.57
2022-12-08T20:00:20.803Z,18.88
2022-12-08T20:02:50.183Z,17.65
2022-12-08T20:05:19.008Z,18.20
2022-12-08T20:07:50.345Z,17.25
2022-12-08T20:10:23.159Z,17.67
2022-12-08T20:12:51.349Z,16.38
2022-12-08T20:15:20.641Z,18.17
2022-12-08T20:17:49.300Z,16.73
2022-12-08T20:20:21.560Z,16.48
2022-12-08T20:22:49.906Z,14.80
2022-12-08T20:25:18.682Z,14.73
2022-12-08T20:27:48.273Z,13.45
2022-12-08T20:30:17.365Z,15.82
2022-12-08T20:32:45.762Z,16.33
2022-12-08T20:35:15.398Z,16.13
2022-12-08T20:37:43.411Z,16.15
2022-12-08T20:40:12.118Z,16.40
2022-12-08T20:42:40.139Z,18.63
2022-12-08T20:45:11.147Z,17.67
2022-12-08T20:47:39.853Z,16.17
2022-12-08T20:50:09.856Z,15.98
2022-12-08T20:52:38.677Z,18.13
2022-12-08T20:55:07.895Z,15.27
2022-12-08T20:57:36.396Z,17.00
2022-12-08T21:00:06.120Z,18.70
2022-12-08T21:02:36.538Z,17.92
2022-12-08T21:05:07.554Z,15.95
2022-12-08T21:07:36.267Z,18.42
2022-12-08T21:10:12.405Z,16.30
2022-12-08T21:12:40.855Z,17.67
2022-12-08T21:15:11.980Z,16.20
2022-12-08T21:17:42.053Z,18.70
2022-12-08T21:20:12.938Z,16.27
2022-12-08T21:22:42.393Z,18.73
2022-12-08T21:25:10.900Z,22.77
2022-12-08T21:27:39.797Z,19.10
2022-12-08T21:30:10.233Z,19.60
2022-12-08T21:32:39.644Z,18.77
2022-12-08T21:35:10.765Z,16.65
2022-12-08T21:37:39.340Z,19.83
2022-12-08T21:40:10.376Z,18.48
2022-12-08T21:42:45.074Z,15.68
2022-12-08T21:45:15.485Z,19.00
2022-12-08T21:47:48.246Z,18.73
2022-12-08T21:50:18.939Z,15.37
2022-12-08T21:52:48.622Z,18.73
2022-12-08T21:55:19.118Z,21.60
2022-12-08T21:57:49.889Z,24.48
2022-12-08T22:00:19.638Z,19.50
2022-12-08T22:02:48.781Z,20.60
2022-12-08T22:05:18.974Z,15.88
2022-12-08T22:07:47.123Z,14.80
2022-12-08T22:10:16.793Z,16.95
2022-12-08T22:12:45.030Z,15.80
2022-12-08T22:15:14.204Z,15.10
2022-12-08T22:17:44.627Z,15.48
2022-12-08T22:20:14.751Z,16.67
2022-12-08T22:22:45.681Z,15.98
2022-12-08T22:25:14.999Z,14.60
2022-12-08T22:27:47.179Z,15.37
2022-12-08T22:30:31.797Z,15.93
2022-12-08T22:33:02.601Z,20.30
2022-12-08T22:35:30.738Z,18.60
2022-12-08T22:38:00.183Z,24.38
2022-12-08T22:40:28.609Z,32.13
2022-12-08T22:42:56.706Z,25.48
2022-12-08T22:45:24.910Z,25.10
2022-12-08T22:47:52.861Z,19.58
2022-12-08T22:50:21.251Z,22.60
2022-12-08T22:52:49.403Z,17.53
2022-12-08T22:55:19.169Z,17.60
2022-12-08T22:57:47.284Z,16.90
2022-12-08T23:00:16.163Z,17.77
2022-12-08T23:02:44.138Z,16.58
2022-12-08T23:05:12.617Z,17.53
2022-12-08T23:07:41.258Z,16.42
2022-12-08T23:10:11.022Z,15.13
2022-12-08T23:12:40.566Z,17.98
2022-12-08T23:15:09.565Z,17.92
2022-12-08T23:17:37.905Z,15.17
2022-12-08T23:20:08.008Z,18.48
2022-12-08T23:22:36.173Z,17.27
2022-12-08T23:25:05.157Z,16.58
2022-12-08T23:27:33.496Z,17.63
2022-12-08T23:30:03.054Z,17.37
2022-12-08T23:32:31.369Z,19.45
2022-12-08T23:34:59.810Z,19.67
2022-12-08T23:37:28.901Z,17.23
2022-12-08T23:39:57.190Z,16.95
2022-12-08T23:42:25.249Z,17.63
2022-12-08T23:44:53.603Z,16.63
2022-12-08T23:47:23.053Z,18.15
2022-12-08T23:49:51.284Z,17.45
2022-12-08T23:52:19.507Z,18.33
2022-12-08T23:54:47.703Z,17.87
2022-12-08T23:57:15.842Z,19.15
2022-12-08T23:59:44.575Z,17.67
